Time,TemperatureF,DewpointF,PressureIn,WindDirection,WindDirectionDegrees,WindSpeedMPH,WindSpeedGustMPH,Humidity,HourlyPrecipIn,Conditions,Clouds,dailyrainin,SoftwareType,DateUTC
2013-05-09 00:10:00,65.8,56.1,29.72,SSW,202,0.0,-999.0,71,-99.99,,,0.00,Acu-Link.com,2013-05-09 05:10:00,
2013-05-09 00:25:00,65.7,56.0,29.71,SSW,202,0.0,-999.0,71,-99.99,,,0.00,Acu-Link.com,2013-05-09 05:25:00,
2013-05-09 00:41:00,65.5,56.2,29.71,SSW,202,0.0,-999.0,72,-99.99,,,0.00,Acu-Link.com,2013-05-09 05:41:00,
2013-05-09 00:56:00,65.3,56.4,29.71,SSW,202,0.0,-999.0,73,-99.99,,,0.00,Acu-Link.com,2013-05-09 05:56:00,
2013-05-09 01:11:00,65.3,56.4,29.71,SSW,202,0.0,-999.0,73,-99.99,,,0.00,Acu-Link.com,2013-05-09 06:11:00,
2013-05-09 01:27:00,65.3,56.8,29.71,SSW,202,0.0,-999.0,74,-99.99,,,0.00,Acu-Link.com,2013-05-09 06:27:00,
2013-05-09 01:42:00,65.3,57.2,29.69,SSW,202,0.0,-999.0,75,-99.99,,,0.00,Acu-Link.com,2013-05-09 06:42:00,
2013-05-09 01:57:00,64.8,57.4,29.70,SSW,202,0.0,-999.0,77,-99.99,,,0.00,Acu-Link.com,2013-05-09 06:57:00,
2013-05-09 02:12:00,64.2,57.2,29.70,SSW,202,0.0,-999.0,78,-99.99,,,0.00,Acu-Link.com,2013-05-09 07:12:00,
2013-05-09 02:27:00,64.2,57.2,29.69,SSW,202,0.0,-999.0,78,-99.99,,,0.00,Acu-Link.com,2013-05-09 07:27:00,
2013-05-09 02:43:00,64.2,57.2,29.69,SSW,202,0.0,-999.0,78,-99.99,,,0.00,Acu-Link.com,2013-05-09 07:43:00,
2013-05-09 02:58:00,64.2,56.8,29.69,SSW,202,0.0,-999.0,77,-99.99,,,0.00,Acu-Link.com,2013-05-09 07:58:00,
2013-05-09 03:13:00,64.2,57.5,29.69,SSW,202,0.0,-999.0,79,-99.99,,,0.00,Acu-Link.com,2013-05-09 08:13:00,
2013-05-09 03:28:00,64.2,57.2,29.68,SSW,202,0.0,-999.0,78,-99.99,,,0.00,Acu-Link.com,2013-05-09 08:28:00,
2013-05-09 03:43:00,64.2,57.9,29.69,SSW,202,0.0,-999.0,80,-99.99,,,0.00,Acu-Link.com,2013-05-09 08:43:00,
2013-05-09 03:59:00,64.0,58.0,29.69,SSW,202,0.0,-999.0,81,-99.99,,,0.00,Acu-Link.com,2013-05-09 08:59:00,
2013-05-09 04:14:00,63.5,57.9,29.69,SSW,202,0.0,-999.0,82,-99.99,,,0.00,Acu-Link.com,2013-05-09 09:14:00,
2013-05-09 04:29:00,63.0,57.4,29.68,SSW,202,0.0,-999.0,82,-99.99,,,0.00,Acu-Link.com,2013-05-09 09:29:00,
2013-05-09 04:44:00,62.4,56.8,29.68,SSW,202,0.0,-999.0,82,-99.99,,,0.00,Acu-Link.com,2013-05-09 09:44:00,
2013-05-09 04:59:00,62.2,56.6,29.68,SSW,202,0.0,-999.0,82,-99.99,,,0.00,Acu-Link.com,2013-05-09 09:59:00,
2013-05-09 05:14:00,61.9,56.7,29.68,SSW,202,0.0,-999.0,83,-99.99,,,0.00,Acu-Link.com,2013-05-09 10:14:00,
2013-05-09 05:30:00,62.8,57.2,29.69,South,180,0.0,-999.0,82,-99.99,,,0.00,Acu-Link.com,2013-05-09 10:30:00,
2013-05-09 05:45:00,62.4,57.2,29.68,South,180,0.0,-999.0,83,-99.99,,,0.00,Acu-Link.com,2013-05-09 10:45:00,
2013-05-09 06:00:00,62.4,57.5,29.69,South,180,0.0,-999.0,84,-99.99,,,0.00,Acu-Link.com,2013-05-09 11:00:00,
2013-05-09 06:15:00,62.4,57.8,29.70,SSW,202,0.0,-999.0,85,-99.99,,,0.00,Acu-Link.com,2013-05-09 11:15:00,
2013-05-09 06:31:00,62.4,58.2,29.70,NW,315,0.0,-999.0,86,-99.99,,,0.00,Acu-Link.com,2013-05-09 11:31:00,
2013-05-09 06:46:00,61.9,58.9,29.71,South,180,0.0,-999.0,90,-99.99,,,0.00,Acu-Link.com,2013-05-09 11:46:00,
2013-05-09 07:01:00,61.3,58.6,29.70,SSW,202,0.0,-999.0,91,-99.99,,,0.00,Acu-Link.com,2013-05-09 12:01:00,
2013-05-09 07:16:00,61.2,59.2,29.71,SSW,202,0.0,-999.0,93,-99.99,,,0.00,Acu-Link.com,2013-05-09 12:16:00,
2013-05-09 07:32:00,61.5,59.5,29.72,WNW,292,0.0,-999.0,93,-99.99,,,0.00,Acu-Link.com,2013-05-09 12:32:00,
2013-05-09 07:47:00,61.5,59.2,29.73,NW,315,0.0,-999.0,92,-99.99,,,0.00,Acu-Link.com,2013-05-09 12:47:00,
2013-05-09 08:02:00,61.3,59.3,29.72,WNW,292,0.0,-999.0,93,-99.99,,,0.00,Acu-Link.com,2013-05-09 13:02:00,
2013-05-09 08:18:00,61.0,59.6,29.71,WNW,292,0.0,-999.0,95,-99.99,,,0.01,Acu-Link.com,2013-05-09 13:18:00,
2013-05-09 08:33:00,60.8,59.7,29.70,WNW,292,0.0,-999.0,96,-99.99,,,0.02,Acu-Link.com,2013-05-09 13:33:00,
2013-05-09 08:48:00,61.0,60.4,29.70,NE,45,0.0,-999.0,98,-99.99,,,0.03,Acu-Link.com,2013-05-09 13:48:00,
2013-05-09 09:03:00,61.7,60.8,29.70,ESE,112,0.0,-999.0,97,-99.99,,,0.04,Acu-Link.com,2013-05-09 14:03:00,
2013-05-09 09:18:00,61.5,60.3,29.70,East,90,1.7,-999.0,96,-99.99,,,0.04,Acu-Link.com,2013-05-09 14:18:00,
2013-05-09 09:34:00,62.1,60.9,29.68,SE,135,1.7,-999.0,96,-99.99,,,0.04,Acu-Link.com,2013-05-09 14:34:00,
2013-05-09 09:49:00,64.9,61.9,29.67,SE,135,4.7,-999.0,90,-99.99,,,0.04,Acu-Link.com,2013-05-09 14:49:00,
2013-05-09 10:04:00,66.2,62.9,29.67,WNW,292,0.0,-999.0,89,-99.99,,,0.04,Acu-Link.com,2013-05-09 15:04:00,
2013-05-09 10:20:00,67.5,62.5,29.67,South,180,0.0,-999.0,84,-99.99,,,0.04,Acu-Link.com,2013-05-09 15:20:00,
2013-05-09 10:35:00,70.0,61.3,29.67,NNE,22,3.2,-999.0,74,-99.99,,,0.04,Acu-Link.com,2013-05-09 15:35:00,
2013-05-09 10:50:00,69.8,60.4,29.66,South,180,3.7,-999.0,72,-99.99,,,0.04,Acu-Link.com,2013-05-09 15:50:00,
2013-05-09 11:06:00,72.0,60.0,29.65,SE,135,2.2,-999.0,66,-99.99,,,0.04,Acu-Link.com,2013-05-09 16:06:00,
2013-05-09 11:21:00,72.7,59.8,29.65,SE,135,4.2,-999.0,64,-99.99,,,0.04,Acu-Link.com,2013-05-09 16:21:00,
2013-05-09 11:36:00,72.1,58.8,29.66,ESE,112,4.2,-999.0,63,-99.99,,,0.04,Acu-Link.com,2013-05-09 16:36:00,
2013-05-09 11:51:00,73.4,60.0,29.66,SSE,157,0.0,-999.0,63,-99.99,,,0.04,Acu-Link.com,2013-05-09 16:51:00,
2013-05-09 12:06:00,71.6,60.0,29.66,South,180,6.3,-999.0,67,-99.99,,,0.04,Acu-Link.com,2013-05-09 17:06:00,
2013-05-09 12:21:00,70.0,58.9,29.67,SSE,157,0.0,-999.0,68,-99.99,,,0.04,Acu-Link.com,2013-05-09 17:21:00,
2013-05-09 12:37:00,65.3,59.7,29.69,NE,45,1.7,-999.0,82,-99.99,,,0.04,Acu-Link.com,2013-05-09 17:37:00,
2013-05-09 12:52:00,62.2,59.5,29.68,South,180,5.3,-999.0,91,-99.99,,,0.09,Acu-Link.com,2013-05-09 17:52:00,
2013-05-09 13:07:00,61.9,59.9,29.68,SE,135,2.2,-999.0,93,-99.99,,,0.10,Acu-Link.com,2013-05-09 18:07:00,
2013-05-09 13:22:00,61.5,60.3,29.66,SSE,157,0.0,-999.0,96,-99.99,,,0.14,Acu-Link.com,2013-05-09 18:22:00,
2013-05-09 13:38:00,61.7,61.1,29.66,South,180,0.0,-999.0,98,-99.99,,,0.20,Acu-Link.com,2013-05-09 18:38:00,
2013-05-09 13:53:00,62.1,61.5,29.65,SSE,157,0.0,-999.0,98,-99.99,,,0.21,Acu-Link.com,2013-05-09 18:53:00,
2013-05-09 14:08:00,61.9,61.3,29.65,East,90,0.0,-999.0,98,-99.99,,,0.22,Acu-Link.com,2013-05-09 19:08:00,
2013-05-09 14:24:00,61.5,60.6,29.65,SSW,202,5.3,-999.0,97,-99.99,,,0.25,Acu-Link.com,2013-05-09 19:24:00,
2013-05-09 14:39:00,61.7,61.1,29.64,South,180,1.7,-999.0,98,-99.99,,,0.25,Acu-Link.com,2013-05-09 19:39:00,
2013-05-09 14:54:00,61.9,61.3,29.63,East,90,0.0,-999.0,98,-99.99,,,0.26,Acu-Link.com,2013-05-09 19:54:00,
2013-05-09 15:09:00,62.2,61.9,29.62,ESE,112,0.0,-999.0,99,-99.99,,,0.26,Acu-Link.com,2013-05-09 20:09:00,
2013-05-09 15:25:00,62.6,62.0,29.61,SE,135,0.0,-999.0,98,-99.99,,,0.27,Acu-Link.com,2013-05-09 20:25:00,
2013-05-09 15:40:00,62.8,62.2,29.60,East,90,0.0,-999.0,98,-99.99,,,0.28,Acu-Link.com,2013-05-09 20:40:00,
2013-05-09 15:55:00,63.1,61.9,29.60,SE,135,4.7,-999.0,96,-99.99,,,0.28,Acu-Link.com,2013-05-09 20:55:00,
2013-05-09 16:10:00,63.3,62.4,29.59,ESE,112,0.0,-999.0,97,-99.99,,,0.28,Acu-Link.com,2013-05-09 21:10:00,
2013-05-09 16:26:00,63.5,62.3,29.59,ESE,112,0.0,-999.0,96,-99.99,,,0.28,Acu-Link.com,2013-05-09 21:26:00,
2013-05-09 16:41:00,63.9,62.7,29.59,SSE,157,0.0,-999.0,96,-99.99,,,0.28,Acu-Link.com,2013-05-09 21:41:00,
2013-05-09 16:56:00,63.9,63.0,29.59,SE,135,0.0,-999.0,97,-99.99,,,0.28,Acu-Link.com,2013-05-09 21:56:00,
2013-05-09 17:12:00,63.7,62.8,29.58,SSE,157,0.0,-999.0,97,-99.99,,,0.28,Acu-Link.com,2013-05-09 22:12:00,
2013-05-09 17:27:00,63.9,63.3,29.59,NE,45,0.0,-999.0,98,-99.99,,,0.28,Acu-Link.com,2013-05-09 22:27:00,
2013-05-09 17:42:00,63.9,63.3,29.57,NE,45,0.0,-999.0,98,-99.99,,,0.29,Acu-Link.com,2013-05-09 22:42:00,
2013-05-09 17:57:00,64.0,63.4,29.57,NNE,22,0.0,-999.0,98,-99.99,,,0.29,Acu-Link.com,2013-05-09 22:57:00,
2013-05-09 18:13:00,64.0,63.4,29.56,SSE,157,0.0,-999.0,98,-99.99,,,0.29,Acu-Link.com,2013-05-09 23:13:00,
2013-05-09 18:28:00,63.7,63.1,29.56,NNE,22,0.0,-999.0,98,-99.99,,,0.30,Acu-Link.com,2013-05-09 23:28:00,
2013-05-09 18:43:00,63.5,63.2,29.56,SE,135,0.0,-999.0,99,-99.99,,,0.32,Acu-Link.com,2013-05-09 23:43:00,
2013-05-09 18:58:00,63.1,62.8,29.57,South,180,0.0,-999.0,99,-99.99,,,0.33,Acu-Link.com,2013-05-09 23:58:00,
2013-05-09 19:14:00,63.0,62.7,29.57,West,270,0.0,-999.0,99,-99.99,,,0.33,Acu-Link.com,2013-05-10 00:14:00,
2013-05-09 19:29:00,63.0,62.7,29.57,SSW,202,0.0,-999.0,99,-99.99,,,0.33,Acu-Link.com,2013-05-10 00:29:00,
2013-05-09 19:44:00,63.0,62.7,29.57,SSW,202,0.0,-999.0,99,-99.99,,,0.33,Acu-Link.com,2013-05-10 00:44:00,
2013-05-09 19:59:00,62.4,62.1,29.57,SE,135,0.0,-999.0,99,-99.99,,,0.33,Acu-Link.com,2013-05-10 00:59:00,
2013-05-09 20:15:00,62.1,61.8,29.58,SE,135,0.0,-999.0,99,-99.99,,,0.33,Acu-Link.com,2013-05-10 01:15:00,
2013-05-09 20:30:00,62.1,61.8,29.59,SSW,202,0.0,-999.0,99,-99.99,,,0.33,Acu-Link.com,2013-05-10 01:30:00,
2013-05-09 20:45:00,62.1,61.8,29.56,South,180,0.0,-999.0,99,-99.99,,,0.33,Acu-Link.com,2013-05-10 01:45:00,
2013-05-09 21:01:00,61.9,61.6,29.56,South,180,0.0,-999.0,99,-99.99,,,0.33,Acu-Link.com,2013-05-10 02:01:00,
2013-05-09 21:16:00,61.9,61.6,29.56,South,180,0.0,-999.0,99,-99.99,,,0.33,Acu-Link.com,2013-05-10 02:16:00,
2013-05-09 21:31:00,62.1,61.8,29.57,South,180,0.0,-999.0,99,-99.99,,,0.33,Acu-Link.com,2013-05-10 02:31:00,
2013-05-09 21:46:00,62.1,61.8,29.56,SSE,157,0.0,-999.0,99,-99.99,,,0.33,Acu-Link.com,2013-05-10 02:46:00,
2013-05-09 22:01:00,62.1,61.8,29.57,South,180,0.0,-999.0,99,-99.99,,,0.33,Acu-Link.com,2013-05-10 03:01:00,
2013-05-09 22:17:00,62.1,61.8,29.56,South,180,0.0,-999.0,99,-99.99,,,0.33,Acu-Link.com,2013-05-10 03:17:00,
2013-05-09 22:32:00,62.1,61.8,29.56,South,180,3.7,-999.0,99,-99.99,,,0.33,Acu-Link.com,2013-05-10 03:32:00,
2013-05-09 22:47:00,62.1,61.8,29.55,WNW,292,4.7,-999.0,99,-99.99,,,0.33,Acu-Link.com,2013-05-10 03:47:00,
2013-05-09 23:03:00,62.1,61.8,29.55,SSW,202,3.2,-999.0,99,-99.99,,,0.33,Acu-Link.com,2013-05-10 04:03:00,
2013-05-09 23:18:00,61.9,61.6,29.55,SSE,157,0.0,-999.0,99,-99.99,,,0.33,Acu-Link.com,2013-05-10 04:18:00,
2013-05-09 23:33:00,61.9,61.6,29.55,South,180,0.0,-999.0,99,-99.99,,,0.33,Acu-Link.com,2013-05-10 04:33:00,
2013-05-09 23:48:00,61.9,61.6,29.55,SSW,202,0.0,-999.0,99,-99.99,,,0.33,Acu-Link.com,2013-05-10 04:48:00,